createdAt,value
2018-01-05T00:02:13.227Z,45.83
2018-01-05T00:04:40.740Z,45.23
2018-01-05T00:07:07.477Z,38.87
2018-01-05T00:09:34.223Z,31.37
2018-01-05T00:12:01.873Z,39.63
2018-01-05T00:17:13.763Z,36.13
2018-01-05T00:19:41.503Z,28.70
2018-01-05T00:22:08.214Z,25.67
2018-01-05T00:24:34.933Z,23.20
2018-01-05T00:27:12.143Z,20.13
2018-01-05T00:29:38.834Z,24.53
2018-01-05T00:32:05.523Z,20.67
2018-01-05T00:34:32.256Z,20.30
2018-01-05T00:39:45.039Z,20.90
2018-01-05T00:42:20.667Z,16.60
2018-01-05T00:44:57.387Z,16.90
2018-01-05T00:47:27.303Z,14.63
2018-01-05T00:50:07.395Z,13.80
2018-01-05T00:52:48.991Z,12.37
2018-01-05T00:55:27.224Z,9.60
2018-01-05T00:58:08.271Z,10.07
2018-01-05T01:06:06.195Z,13.07
2018-01-05T01:08:43.011Z,10.77
2018-01-05T01:11:15.253Z,10.17
2018-01-05T01:13:59.202Z,7.77
2018-01-05T01:41:28.103Z,7.30
2018-01-05T01:49:25.878Z,4.40
2018-01-05T01:51:52.607Z,5.17
2018-01-05T01:54:20.260Z,7.80
2018-01-05T01:56:48.595Z,6.40
2018-01-05T01:59:16.313Z,4.93
2018-01-05T02:01:43.067Z,7.63
2018-01-05T02:04:09.804Z,4.80
2018-01-05T02:06:36.491Z,6.67
2018-01-05T02:09:20.269Z,4.27
2018-01-05T02:11:55.411Z,6.23
2018-01-05T02:14:25.463Z,3.60
2018-01-05T02:16:58.149Z,4.03
2018-01-05T02:19:42.183Z,3.17
2018-01-05T02:22:17.023Z,5.10
2018-01-05T02:24:54.572Z,4.97
2018-01-05T02:27:33.020Z,6.13
2018-01-05T02:29:59.834Z,6.17
2018-01-05T02:43:42.716Z,5.03
2018-01-05T02:46:18.657Z,4.00
2018-01-05T03:05:19.193Z,3.93
2018-01-05T03:24:22.525Z,6.10
2018-01-05T03:29:36.117Z,6.80
2018-01-05T03:32:02.809Z,8.57
2018-01-05T03:34:38.313Z,6.63
2018-01-05T03:37:04.999Z,4.53
2018-01-05T03:39:37.538Z,7.47
2018-01-05T03:42:04.851Z,7.50
2018-01-05T03:47:17.131Z,10.13
2018-01-05T03:49:43.881Z,14.40
2018-01-05T03:52:10.631Z,17.53
2018-01-05T03:54:37.413Z,10.47
2018-01-05T03:59:56.983Z,10.23
2018-01-05T04:02:27.075Z,16.77
2018-01-05T04:04:53.787Z,13.83
2018-01-05T04:07:28.454Z,16.90
2018-01-05T04:09:57.169Z,20.10
2018-01-05T04:12:42.190Z,20.67
2018-01-05T04:15:17.499Z,11.53
2018-01-05T04:20:33.172Z,8.10
2018-01-05T04:23:05.090Z,5.67
2018-01-05T04:25:32.851Z,8.43
2018-01-05T04:28:00.831Z,7.47
2018-01-05T04:30:38.775Z,8.17
2018-01-05T04:33:19.775Z,5.90
2018-01-05T04:35:47.449Z,6.10
2018-01-05T04:38:19.607Z,7.80
2018-01-05T04:40:46.297Z,6.93
2018-01-05T04:43:14.370Z,6.90
2018-01-05T04:45:42.097Z,8.43
2018-01-05T04:48:13.881Z,6.63
2018-01-05T04:50:48.040Z,5.50
2018-01-05T04:53:16.783Z,9.53
2018-01-05T04:55:44.416Z,6.50
2018-01-05T04:58:14.151Z,7.37
2018-01-05T05:00:40.948Z,8.40
2018-01-05T05:05:54.396Z,6.90
2018-01-05T05:08:21.116Z,6.60
2018-01-05T05:10:47.835Z,5.67
2018-01-05T05:13:18.146Z,6.90
2018-01-05T05:15:45.877Z,7.30
2018-01-05T05:18:12.675Z,6.60
2018-01-05T05:20:39.429Z,7.27
2018-01-05T05:23:07.125Z,5.20
2018-01-05T05:25:33.861Z,6.57
2018-01-05T05:28:01.709Z,7.70
2018-01-05T05:30:28.471Z,11.30
2018-01-05T05:38:27.423Z,7.17
2018-01-05T05:46:12.795Z,10.13
2018-01-05T05:48:44.319Z,8.97
2018-01-05T05:51:11.039Z,9.03
2018-01-05T05:53:38.679Z,8.83
2018-01-05T05:56:05.447Z,7.83
2018-01-05T05:58:33.103Z,9.83
2018-01-05T06:01:00.779Z,10.80
2018-01-05T06:03:29.453Z,10.57
2018-01-05T06:08:35.939Z,9.70
2018-01-05T06:11:06.734Z,11.87
2018-01-05T06:13:34.455Z,9.50
2018-01-05T06:16:15.173Z,8.07
2018-01-05T06:18:43.914Z,7.77
2018-01-05T06:21:11.549Z,9.37
2018-01-05T06:26:29.619Z,10.10
2018-01-05T06:29:07.132Z,12.53
2018-01-05T06:31:33.875Z,12.27
2018-01-05T06:34:00.555Z,14.17
2018-01-05T06:36:27.297Z,11.80
2018-01-05T06:38:54.025Z,13.50
2018-01-05T06:41:20.739Z,13.40
2018-01-05T06:43:48.693Z,13.87
2018-01-05T06:46:23.549Z,15.27
2018-01-05T06:48:51.287Z,13.17
2018-01-05T06:51:20.042Z,15.70
2018-01-05T06:53:46.823Z,13.03
2018-01-05T06:56:27.402Z,16.37
2018-01-05T07:01:53.866Z,15.33
2018-01-05T07:04:22.541Z,18.70
2018-01-05T07:06:54.466Z,19.23
2018-01-05T07:09:25.171Z,15.47
2018-01-05T07:14:43.453Z,18.50
2018-01-05T07:17:10.670Z,19.87
2018-01-05T07:19:52.546Z,18.43
2018-01-05T07:22:20.314Z,18.70
2018-01-05T07:24:59.103Z,17.83
2018-01-05T07:27:33.023Z,16.50
2018-01-05T07:30:03.667Z,19.10
2018-01-05T07:32:36.274Z,18.47
2018-01-05T07:35:13.713Z,22.27
2018-01-05T07:37:46.220Z,22.37
2018-01-05T07:42:58.302Z,20.07
2018-01-05T07:45:27.042Z,23.67
2018-01-05T07:48:03.696Z,22.50
2018-01-05T07:50:36.299Z,19.23
2018-01-05T07:53:03.994Z,21.40
2018-01-05T07:55:48.930Z,28.60
2018-01-05T08:01:18.956Z,20.13
2018-01-05T08:03:51.967Z,24.30
2018-01-05T08:06:35.160Z,23.40
2018-01-05T08:14:46.135Z,20.73
2018-01-05T08:22:45.482Z,28.00
2018-01-05T08:25:12.234Z,29.97
2018-01-05T08:27:38.952Z,26.73
2018-01-05T08:30:05.636Z,26.03
2018-01-05T08:32:32.377Z,28.93
2018-01-05T08:35:00.013Z,32.30
2018-01-05T08:37:26.712Z,30.73
2018-01-05T08:39:55.380Z,30.57
2018-01-05T08:42:30.874Z,30.83
2018-01-05T08:45:00.834Z,27.27
2018-01-05T08:47:32.506Z,29.00
2018-01-05T08:50:04.357Z,32.87
2018-01-05T08:52:37.758Z,32.53
2018-01-05T08:55:04.503Z,31.97
2018-01-05T09:03:12.090Z,31.10
2018-01-05T09:05:39.752Z,30.67
2018-01-05T09:16:34.488Z,28.03
2018-01-05T09:33:01.296Z,24.17
2018-01-05T09:35:30.036Z,20.23
2018-01-05T09:38:04.373Z,23.77
2018-01-05T09:40:37.022Z,24.03
2018-01-05T09:43:22.680Z,21.63
2018-01-05T09:45:50.400Z,20.83
2018-01-05T09:48:17.156Z,23.40
2018-01-05T09:50:43.885Z,23.20
2018-01-05T09:56:03.557Z,15.80
2018-01-05T09:58:31.240Z,23.43
2018-01-05T10:00:58.884Z,18.13
2018-01-05T10:03:28.844Z,18.83
2018-01-05T10:05:56.512Z,20.07
2018-01-05T10:08:29.768Z,17.60
2018-01-05T10:11:05.134Z,17.23
2018-01-05T10:13:43.636Z,21.73
2018-01-05T10:16:18.773Z,16.10
2018-01-05T10:21:32.946Z,17.70
2018-01-05T10:24:08.110Z,15.50
2018-01-05T10:26:34.802Z,18.03
2018-01-05T10:29:02.520Z,18.87
2018-01-05T10:31:36.450Z,21.07
2018-01-05T10:34:09.094Z,18.97
2018-01-05T10:36:42.112Z,18.97
2018-01-05T10:39:20.708Z,19.43
2018-01-05T10:42:01.260Z,17.07
2018-01-05T10:47:22.660Z,15.10
2018-01-05T10:49:50.313Z,19.00
2018-01-05T10:52:21.878Z,16.83
2018-01-05T10:54:57.300Z,14.13
2018-01-05T10:57:24.001Z,18.47
2018-01-05T10:59:55.609Z,15.07
2018-01-05T11:02:37.601Z,17.50
2018-01-05T11:05:04.291Z,17.07
2018-01-05T11:07:43.426Z,17.67
2018-01-05T11:10:12.078Z,16.67
2018-01-05T11:12:38.764Z,14.97
2018-01-05T11:15:19.064Z,23.30
2018-01-05T11:17:47.777Z,22.77
2018-01-05T11:20:21.600Z,21.63
2018-01-05T11:23:02.523Z,17.93
2018-01-05T11:25:29.226Z,21.57
2018-01-05T11:27:56.872Z,15.10
2018-01-05T11:30:23.564Z,16.63
2018-01-05T11:32:54.800Z,21.80
2018-01-05T11:38:07.678Z,18.97
2018-01-05T11:40:35.396Z,23.07
2018-01-05T11:43:02.812Z,18.43
2018-01-05T11:45:42.456Z,22.17
2018-01-05T11:48:09.144Z,19.30
2018-01-05T11:50:46.076Z,18.40
2018-01-05T11:53:15.934Z,17.47
2018-01-05T11:58:43.890Z,19.50
2018-01-05T12:04:00.993Z,26.43
2018-01-05T12:06:38.348Z,22.97
2018-01-05T12:09:05.039Z,16.13
2018-01-05T12:11:34.876Z,21.93
2018-01-05T12:14:04.770Z,23.60
2018-01-05T12:22:07.100Z,21.87
2018-01-05T12:24:33.829Z,20.80
2018-01-05T12:32:39.490Z,23.73
2018-01-05T12:35:06.438Z,19.50
2018-01-05T12:43:05.570Z,23.57
2018-01-05T12:45:34.354Z,23.67
2018-01-05T12:48:01.062Z,22.80
2018-01-05T12:50:45.053Z,26.23
2018-01-05T12:53:11.736Z,23.10
2018-01-05T13:01:17.514Z,26.33
2018-01-05T13:03:44.374Z,25.60
2018-01-05T13:06:11.260Z,22.63
2018-01-05T13:11:23.998Z,23.43
2018-01-05T13:13:50.694Z,23.30
2018-01-05T13:16:18.214Z,22.53
2018-01-05T13:19:02.915Z,28.10
2018-01-05T13:21:31.702Z,23.00
2018-01-05T13:23:58.394Z,19.07
2018-01-05T13:29:12.146Z,24.57
2018-01-05T13:31:44.884Z,21.47
2018-01-05T13:34:20.749Z,23.07
2018-01-05T13:36:47.442Z,21.73
2018-01-05T13:39:14.180Z,19.70
2018-01-05T13:41:40.898Z,16.53
2018-01-05T13:44:09.513Z,20.80
2018-01-05T13:46:42.974Z,20.67
2018-01-05T13:49:09.732Z,19.30
2018-01-05T13:51:36.442Z,25.07
2018-01-05T13:54:03.150Z,22.23
2018-01-05T13:56:38.375Z,22.70
2018-01-05T13:59:05.165Z,24.70
2018-01-05T14:01:31.868Z,27.57
2018-01-05T14:04:10.783Z,31.00
2018-01-05T14:06:43.487Z,24.93
2018-01-05T14:09:10.824Z,27.87
2018-01-05T14:11:38.106Z,26.67
2018-01-05T14:14:04.824Z,32.70
2018-01-05T14:16:31.609Z,33.77
2018-01-05T14:18:58.932Z,25.07
2018-01-05T14:24:27.479Z,42.80
2018-01-05T14:26:54.150Z,47.17
2018-01-05T14:29:20.851Z,52.70
2018-01-05T14:31:47.643Z,37.00
2018-01-05T14:34:14.323Z,34.37
2018-01-05T14:36:41.074Z,32.97
2018-01-05T14:39:07.779Z,36.97
2018-01-05T14:41:34.498Z,40.53
2018-01-05T14:44:01.189Z,42.80
2018-01-05T14:46:27.918Z,49.60
2018-01-05T14:48:54.627Z,46.50
2018-01-05T14:51:21.303Z,55.93
2018-01-05T14:53:49.625Z,55.20
2018-01-05T14:56:16.392Z,60.40
2018-01-05T15:01:39.686Z,60.17
2018-01-05T15:04:06.439Z,49.23
2018-01-05T15:06:33.159Z,49.47
2018-01-05T15:09:07.029Z,39.93
2018-01-05T15:11:34.221Z,44.57
2018-01-05T15:14:00.911Z,40.00
2018-01-05T15:16:27.663Z,39.10
2018-01-05T15:18:54.404Z,42.27
2018-01-05T15:21:25.177Z,37.17
2018-01-05T15:23:51.889Z,31.50
2018-01-05T15:26:18.603Z,31.37
2018-01-05T15:29:01.467Z,28.00
2018-01-05T15:31:28.238Z,28.27
2018-01-05T15:33:55.382Z,32.77
2018-01-05T15:37:26.412Z,37.77
2018-01-05T15:39:54.179Z,35.10
2018-01-05T15:42:39.077Z,34.13
2018-01-05T15:50:47.909Z,29.60
2018-01-05T15:55:49.109Z,38.80
2018-01-05T15:58:24.368Z,34.80
2018-01-05T16:03:42.037Z,36.47
2018-01-05T16:06:08.889Z,42.90
2018-01-05T16:08:36.539Z,38.13
2018-01-05T16:11:03.250Z,49.27
2018-01-05T16:13:33.621Z,44.50
2018-01-05T16:16:05.940Z,40.93
2018-01-05T16:18:33.035Z,43.77
2018-01-05T16:20:59.817Z,47.33
2018-01-05T16:23:32.315Z,66.57
2018-01-05T16:25:59.052Z,71.20
2018-01-05T16:28:27.283Z,73.47
2018-01-05T16:30:53.990Z,82.70
2018-01-05T16:33:20.678Z,103.73
2018-01-05T16:35:47.371Z,98.80
2018-01-05T16:40:48.157Z,82.10
2018-01-05T16:43:14.911Z,81.53
2018-01-05T16:54:41.315Z,93.57
2018-01-05T16:57:08.029Z,97.70
2018-01-05T16:59:38.612Z,81.80
2018-01-05T17:02:05.328Z,105.27
2018-01-05T17:04:55.364Z,99.23
2018-01-05T17:07:22.767Z,94.50
2018-01-05T17:09:50.863Z,101.17
2018-01-05T17:12:18.610Z,115.77
2018-01-05T17:14:59.122Z,110.93
2018-01-05T17:17:30.600Z,106.93
2018-01-05T17:19:57.409Z,110.03
2018-01-05T17:22:24.114Z,101.17
2018-01-05T17:24:50.898Z,102.50
2018-01-05T17:27:17.604Z,96.13
2018-01-05T17:29:44.299Z,88.93
2018-01-05T17:32:11.011Z,73.37
2018-01-05T17:34:37.743Z,79.47
2018-01-05T17:37:04.458Z,78.43
2018-01-05T17:39:31.137Z,85.93
2018-01-05T17:41:57.933Z,101.40
2018-01-05T17:44:24.618Z,100.00
2018-01-05T17:46:51.345Z,101.23
2018-01-05T17:49:18.051Z,100.97
2018-01-05T17:51:44.739Z,102.90
2018-01-05T17:54:24.169Z,92.50
2018-01-05T17:56:57.618Z,88.63
2018-01-05T17:59:24.337Z,81.33
2018-01-05T18:01:51.097Z,80.60
2018-01-05T18:04:17.787Z,83.93
2018-01-05T18:07:02.379Z,86.03
2018-01-05T18:09:29.066Z,99.53
2018-01-05T18:11:55.753Z,102.93
2018-01-05T18:17:11.288Z,129.03
2018-01-05T18:19:38.624Z,124.23
2018-01-05T18:22:05.381Z,139.13
2018-01-05T18:24:33.119Z,138.50
2018-01-05T18:27:08.135Z,149.97
2018-01-05T18:29:35.019Z,141.67
2018-01-05T18:34:39.680Z,145.87
2018-01-05T18:37:06.425Z,144.23
2018-01-05T18:39:33.184Z,140.50
2018-01-05T18:42:00.478Z,144.90
2018-01-05T18:44:33.125Z,142.60
2018-01-05T18:46:59.849Z,147.27
2018-01-05T18:49:26.555Z,138.20
2018-01-05T18:51:53.313Z,141.47
2018-01-05T18:54:20.082Z,123.83
2018-01-05T18:59:33.501Z,106.40
2018-01-05T19:02:00.219Z,111.83
2018-01-05T19:04:26.931Z,104.97
2018-01-05T19:06:53.669Z,105.17
2018-01-05T19:09:21.524Z,104.87
2018-01-05T19:11:48.325Z,91.07
2018-01-05T19:14:15.037Z,99.47
2018-01-05T19:16:41.800Z,105.67
2018-01-05T19:19:08.495Z,99.97
2018-01-05T19:21:35.184Z,99.33
2018-01-05T19:24:02.189Z,106.73
2018-01-05T19:26:31.766Z,104.60
2018-01-05T19:28:59.081Z,113.97
2018-01-05T19:36:35.429Z,114.90
2018-01-05T19:39:04.393Z,104.83
2018-01-05T19:41:31.992Z,114.13
2018-01-05T19:43:58.754Z,105.90
2018-01-05T19:46:25.803Z,123.97
2018-01-05T19:48:52.504Z,130.10
2018-01-05T19:51:19.219Z,114.43
2018-01-05T19:53:45.899Z,137.03
2018-01-05T19:56:12.847Z,115.33
2018-01-05T19:58:39.623Z,122.90
2018-01-05T20:01:06.324Z,144.30
2018-01-05T20:03:33.019Z,156.00
2018-01-05T20:05:59.765Z,159.40
2018-01-05T20:08:26.475Z,148.70
2018-01-05T20:10:53.185Z,161.03
2018-01-05T20:13:19.912Z,148.00
2018-01-05T20:15:47.311Z,159.73
2018-01-05T20:18:14.031Z,147.90
2018-01-05T20:20:40.783Z,165.53
2018-01-05T20:23:07.483Z,156.07
2018-01-05T20:25:34.213Z,157.23
2018-01-05T20:28:00.952Z,160.60
2018-01-05T20:30:27.690Z,156.10
2018-01-05T20:32:54.409Z,152.63
2018-01-05T20:35:21.136Z,147.77
2018-01-05T20:37:48.088Z,145.60
2018-01-05T20:40:14.835Z,164.63
2018-01-05T20:42:41.729Z,156.23
2018-01-05T20:45:08.687Z,167.23
2018-01-05T20:47:35.569Z,137.93
2018-01-05T21:04:04.193Z,165.27
2018-01-05T21:06:31.286Z,183.00
2018-01-05T21:08:58.144Z,190.23
2018-01-05T21:11:24.884Z,196.53
2018-01-05T21:13:51.616Z,198.73
2018-01-05T21:16:18.311Z,174.43
2018-01-05T21:18:45.065Z,179.63
2018-01-05T21:21:12.139Z,165.80
2018-01-05T21:23:38.879Z,169.93
2018-01-05T21:26:05.584Z,176.57
2018-01-05T21:28:32.323Z,232.87
2018-01-05T21:30:59.052Z,226.10
2018-01-05T21:33:25.784Z,225.57
2018-01-05T21:35:53.296Z,278.07
2018-01-05T21:38:20.010Z,258.07
2018-01-05T21:40:46.707Z,245.73
2018-01-05T21:43:13.648Z,260.20
2018-01-05T21:45:40.352Z,250.47
2018-01-05T21:48:07.306Z,246.67
2018-01-05T21:50:34.094Z,217.23
2018-01-05T21:53:11.188Z,231.63
2018-01-05T21:55:41.336Z,290.63
2018-01-05T21:58:12.481Z,258.07
2018-01-05T22:00:39.184Z,282.47
2018-01-05T22:03:05.922Z,267.10
2018-01-05T22:05:32.621Z,251.73
2018-01-05T22:08:07.572Z,253.43
2018-01-05T22:10:34.304Z,253.10
2018-01-05T22:13:01.039Z,259.33
2018-01-05T22:15:28.398Z,247.50
2018-01-05T22:17:56.047Z,279.40
2018-01-05T22:20:22.744Z,266.70
2018-01-05T22:22:49.459Z,252.83
2018-01-05T22:25:16.188Z,259.50
2018-01-05T22:27:42.893Z,261.50
2018-01-05T22:30:09.600Z,297.40
2018-01-05T22:32:39.579Z,255.87
2018-01-05T22:35:06.443Z,238.47
2018-01-05T22:37:35.159Z,247.67
2018-01-05T22:40:01.873Z,264.87
2018-01-05T22:42:28.665Z,271.70
2018-01-05T22:47:52.955Z,255.33
2018-01-05T22:50:20.271Z,249.10
2018-01-05T22:55:49.366Z,210.47
2018-01-05T23:03:51.848Z,203.90
2018-01-05T23:06:24.552Z,199.90
2018-01-05T23:14:27.607Z,215.47
2018-01-05T23:19:45.489Z,245.77
2018-01-05T23:25:02.569Z,256.73
2018-01-05T23:33:09.970Z,232.33
2018-01-05T23:35:41.297Z,194.50
2018-01-05T23:38:12.004Z,212.70
2018-01-05T23:40:42.928Z,205.50
2018-01-05T23:43:26.821Z,185.40
2018-01-05T23:45:59.311Z,163.83
2018-01-05T23:48:31.248Z,135.33
2018-01-05T23:56:30.589Z,87.47
2018-01-05T23:59:00.851Z,73.57
